Tucson, AZ

1:11 AM MST on October 24, 2014 (GMT -0700)
UA WRRC WEATHER | Change Station
CLOSE
Current Station
Personal Weather Station
Location: Tucson, AZ
Elevation: 2431 ft
Nearby Weather Stations

Elev 2431 ft 32.23 °N, 110.94 °W | Updated 14 minutes ago

Clear
Clear
63.5 °F
Feels Like 63.5 °F
N
0.0
Wind Variable Wind from NE
Gusts 1.0 mph

Today
High -- | Low -- °F
--% Chance of Precip.
Yesterday
High -- | Low -- °F
Precip. -- in
6:34 AM 5:41 PM
New Moon, 0% visible
Pressure 29.98 in
Visibility 10.0 miles
Clouds Clear
Dew Point 49 °F
Humidity 60%
Rainfall 0.00 in
Snow Depth Not available.
UV 0 out of 12
Pollen 5.60 out of 12
Air Quality Not available.
Flu Activity No Activity
METAR KDMA 240758Z AUTO 13008KT 10SM CLR 17/08 A3009 RMK AO2 SLP152 T01740081 $

More Conditions Fewer Conditions

Pressure 29.98 in
Visibility 10.0 miles
Clouds Clear
Dew Point 49 °F
Humidity 60%
Rainfall 0.00 in
Snow Depth Not available.
UV 0 out of 12
Pollen 5.60 out of 12
Air Quality Not available.
Flu Activity No Activity
METAR KDMA 240758Z AUTO 13008KT 10SM CLR 17/08 A3009 RMK AO2 SLP152 T01740081 $

More Conditions Fewer Conditions

10-Day Weather Forecast

Almanac

Astronomy

Oct. 24, 2014 Rise Set
Actual Time 6:34 AM MST 5:41 PM MST
Civil Twilight 6:09 AM MST 6:06 PM MST
Nautical Twilight 5:40 AM MST 6:34 PM MST
Astronomical Twilight 5:12 AM MST 7:03 PM MST
Moon 7:14 AM MST 6:26 PM MST
Length of Visible Light 11h 56m
Length of Day
11h 06m
Tomorrow will be 1m 50s shorter.
New Moon, 0% of the Moon is Illuminated
Today
New Moon
Oct 30
First Quarter
Nov 6
Full
Nov 14
Last Quarter
Nov 22
New

Today's Extremes

State Highs State Lows

Community

WunderPhotos

Upload Photos

1,764,511 photos uploaded!

WunderBlogs® & News

Nearby

Snow Depth

Station Depth Elevation
Workman Creek 0 in 6900 ft
Wildcat 0 in 7850 ft
Hannagan Meadows 1 in 9020 ft
Beaver Head 1 in 7990 ft
Heber 0 in 7640 ft

Earthquake Activity

City Distance Mag. Time & Date
No recent earthquake activity has been reported nearby.
Minimum magnitude displayed is 2.5.

Coastal Water Temperatures

Place Temperature
No Stations Reporting

Nearby Weather Stations